Time;durP1;ratioP1;P1;durP2;ratioP2;P2;SDS_P1;SDS_P2;PMS_P1;PMS_P2;Temp;Humidity;BMP_temperature;BMP_pressure;BME280_temperature;BME280_humidity;BME280_pressure;Samples;Min_cycle;Max_cycle;Signal;HPM_P1;HPM_P2
2022/03/26 00:01:55;;;;;;;54.97;23.60;;;9.30;99.90;;;;;;5181716;28;20188;-48
2022/03/26 00:04:25;;;;;;;44.63;23.70;;;9.20;99.90;;;;;;5179411;28;20346;-48
2022/03/26 00:06:56;;;;;;;50.40;20.37;;;9.20;99.90;;;;;;5177321;28;20264;-49
2022/03/26 00:09:26;;;;;;;48.37;20.30;;;9.20;99.90;;;;;;5169050;28;20359;-47
2022/03/26 00:11:57;;;;;;;48.50;20.93;;;9.20;99.90;;;;;;5174048;28;20200;-50
2022/03/26 00:14:27;;;;;;;40.00;20.80;;;9.20;99.90;;;;;;5169866;28;20208;-48
2022/03/26 00:16:58;;;;;;;47.17;21.40;;;9.20;99.90;;;;;;5187073;28;20558;-47
2022/03/26 00:19:28;;;;;;;40.07;21.97;;;9.20;99.90;;;;;;5179479;28;20240;-51
2022/03/26 00:21:59;;;;;;;47.70;19.53;;;9.20;99.90;;;;;;5181724;28;20184;-47
2022/03/26 00:24:30;;;;;;;34.40;18.70;;;9.20;99.90;;;;;;5204740;28;20239;-48
2022/03/26 00:27:00;;;;;;;49.13;21.23;;;9.20;99.90;;;;;;5177556;28;20180;-48
2022/03/26 00:29:31;;;;;;;33.87;19.23;;;9.20;99.90;;;;;;5177456;28;20192;-47
2022/03/26 00:32:04;;;;;;;36.10;17.80;;;9.10;99.90;;;;;;5182336;28;20617;-49
2022/03/26 00:34:35;;;;;;;35.70;17.87;;;9.10;99.90;;;;;;5173731;28;20196;-46
2022/03/26 00:37:05;;;;;;;35.27;18.83;;;9.10;99.90;;;;;;5177159;28;20572;-47
2022/03/26 00:39:38;;;;;;;33.90;19.67;;;9.10;99.90;;;;;;5180025;28;20202;-48
2022/03/26 00:42:09;;;;;;;52.73;20.73;;;9.10;99.90;;;;;;5179125;28;20260;-47
2022/03/26 00:44:40;;;;;;;34.57;18.33;;;9.10;99.90;;;;;;5181673;28;20939;-47
2022/03/26 00:47:11;;;;;;;45.37;20.20;;;9.10;99.90;;;;;;5182438;28;20189;-46
2022/03/26 00:49:41;;;;;;;48.30;20.70;;;9.00;99.90;;;;;;5178569;28;20796;-48
2022/03/26 00:52:12;;;;;;;41.43;20.13;;;9.00;99.90;;;;;;5177210;28;20727;-47
2022/03/26 00:54:43;;;;;;;37.00;19.20;;;8.90;99.90;;;;;;5179782;28;20208;-47
2022/03/26 00:57:13;;;;;;;37.50;21.30;;;8.90;99.90;;;;;;5179852;28;20508;-47
2022/03/26 00:59:45;;;;;;;37.63;20.77;;;8.90;99.90;;;;;;5176393;28;20201;-47
2022/03/26 01:02:16;;;;;;;39.17;20.10;;;8.90;99.90;;;;;;5175025;28;20530;-47
2022/03/26 01:04:47;;;;;;;39.63;20.70;;;8.80;99.90;;;;;;5180100;28;20454;-47
2022/03/26 01:07:17;;;;;;;35.97;21.00;;;8.80;99.90;;;;;;5171884;28;20438;-47
2022/03/26 01:09:48;;;;;;;41.03;20.70;;;8.70;99.90;;;;;;5171433;28;20206;-47
2022/03/26 01:12:18;;;;;;;49.50;18.77;;;8.70;99.90;;;;;;5173196;28;20232;-47
2022/03/26 01:14:51;;;;;;;33.53;18.30;;;8.70;99.90;;;;;;5173920;28;20215;-48
2022/03/26 01:17:22;;;;;;;47.03;21.73;;;8.70;99.90;;;;;;5174866;28;20267;-48
2022/03/26 01:19:54;;;;;;;37.57;19.20;;;8.60;99.90;;;;;;5179188;28;20470;-48
2022/03/26 01:22:24;;;;;;;34.13;19.80;;;8.60;99.90;;;;;;5178725;28;20516;-47
2022/03/26 01:24:55;;;;;;;50.53;22.57;;;8.50;99.90;;;;;;5174628;28;20931;-47
2022/03/26 01:27:25;;;;;;;40.53;20.70;;;8.50;99.90;;;;;;5177634;28;20172;-48
2022/03/26 01:29:56;;;;;;;43.50;21.40;;;8.40;99.90;;;;;;5206116;28;20177;-49
2022/03/26 01:32:26;;;;;;;46.70;21.80;;;8.40;99.90;;;;;;5188156;28;20325;-48
2022/03/26 01:34:57;;;;;;;35.83;20.07;;;8.40;99.90;;;;;;5178031;28;20579;-47
2022/03/26 01:37:28;;;;;;;37.87;20.80;;;8.30;99.90;;;;;;5173158;28;20203;-47
2022/03/26 01:39:58;;;;;;;50.50;20.07;;;8.30;99.90;;;;;;5178914;28;20633;-47
2022/03/26 01:42:29;;;;;;;37.73;20.80;;;8.30;99.90;;;;;;5180450;28;20454;-47
2022/03/26 01:44:59;;;;;;;36.70;21.70;;;8.20;99.90;;;;;;5177790;28;20283;-48
2022/03/26 01:47:30;;;;;;;39.00;20.23;;;8.20;99.90;;;;;;5176714;28;20213;-45
2022/03/26 01:50:00;;;;;;;38.50;18.80;;;8.20;99.90;;;;;;5177830;28;20177;-47
2022/03/26 01:52:31;;;;;;;52.57;19.57;;;8.10;99.90;;;;;;5179649;28;20268;-47
2022/03/26 01:55:03;;;;;;;49.33;19.00;;;8.10;99.90;;;;;;5177531;28;20207;-47
2022/03/26 01:57:34;;;;;;;36.73;20.80;;;8.10;99.90;;;;;;5177073;28;20191;-47
2022/03/26 02:00:06;;;;;;;39.33;21.37;;;8.10;99.90;;;;;;5164354;28;20471;-48
2022/03/26 02:02:37;;;;;;;52.47;22.50;;;8.00;99.90;;;;;;5179171;28;20821;-47
2022/03/26 02:05:07;;;;;;;44.53;21.40;;;8.00;99.90;;;;;;5173868;28;20538;-47
2022/03/26 02:07:39;;;;;;;41.57;20.57;;;7.90;99.90;;;;;;5179289;28;20185;-47
2022/03/26 02:10:12;;;;;;;46.30;22.47;;;7.90;99.90;;;;;;5199941;28;20192;-47
2022/03/26 02:12:43;;;;;;;35.90;20.53;;;7.90;99.90;;;;;;5174027;28;20492;-47
2022/03/26 02:15:14;;;;;;;38.67;20.70;;;7.90;99.90;;;;;;5173869;28;20461;-47
2022/03/26 02:17:45;;;;;;;48.33;21.53;;;7.80;99.90;;;;;;5174989;28;20425;-46
2022/03/26 02:20:17;;;;;;;41.60;21.77;;;7.80;99.90;;;;;;5176816;28;20966;-48
2022/03/26 02:22:48;;;;;;;38.00;21.87;;;7.80;99.90;;;;;;5181079;28;20635;-46
2022/03/26 02:25:18;;;;;;;53.37;22.93;;;7.80;99.90;;;;;;5260201;23;20494;-50
2022/03/26 02:27:49;;;;;;;41.43;21.97;;;7.80;99.90;;;;;;5281833;27;20434;-51
2022/03/26 02:30:21;;;;;;;43.27;21.83;;;7.80;99.90;;;;;;5285766;28;20187;-50
2022/03/26 02:32:51;;;;;;;47.07;22.17;;;7.70;99.90;;;;;;5302159;27;20184;-51
2022/03/26 02:35:22;;;;;;;41.43;20.93;;;7.80;99.90;;;;;;5283077;28;20446;-50
2022/03/26 02:37:52;;;;;;;46.10;21.07;;;7.70;99.90;;;;;;5282154;28;20280;-50
2022/03/26 02:40:23;;;;;;;52.17;20.60;;;7.70;99.90;;;;;;5279330;28;20622;-49
2022/03/26 02:42:53;;;;;;;49.97;21.60;;;7.70;99.90;;;;;;5275757;28;20180;-49
2022/03/26 02:45:24;;;;;;;44.30;20.30;;;7.70;99.90;;;;;;5285299;28;20228;-49
2022/03/26 02:47:56;;;;;;;40.27;19.93;;;7.70;99.90;;;;;;5283411;28;20189;-50
2022/03/26 02:50:26;;;;;;;38.13;21.40;;;7.70;99.90;;;;;;5278544;28;20434;-50
2022/03/26 02:52:57;;;;;;;44.73;21.93;;;7.70;99.90;;;;;;5281748;28;20483;-50
2022/03/26 02:55:27;;;;;;;43.77;20.27;;;7.70;99.90;;;;;;5278714;28;20576;-50
2022/03/26 02:57:58;;;;;;;43.43;21.40;;;7.70;99.90;;;;;;5278502;28;20254;-49
2022/03/26 03:00:28;;;;;;;51.33;22.63;;;7.70;99.90;;;;;;5280471;28;20201;-50
2022/03/26 03:02:59;;;;;;;48.10;24.00;;;7.70;99.90;;;;;;5278430;28;20213;-49
2022/03/26 03:05:30;;;;;;;48.37;27.30;;;7.70;99.90;;;;;;5279602;28;20202;-49
2022/03/26 03:08:01;;;;;;;51.93;22.17;;;7.70;99.90;;;;;;5277154;28;20177;-50
2022/03/26 03:10:31;;;;;;;54.50;23.53;;;7.70;99.90;;;;;;5267177;28;20195;-49
2022/03/26 03:13:02;;;;;;;47.17;22.63;;;7.70;99.90;;;;;;5284413;28;20427;-50
2022/03/26 03:15:33;;;;;;;48.63;23.10;;;7.60;99.90;;;;;;5288414;28;20212;-50
2022/03/26 03:18:03;;;;;;;39.80;22.10;;;7.60;99.90;;;;;;5288435;28;20259;-49
2022/03/26 03:20:34;;;;;;;48.40;22.07;;;7.60;99.90;;;;;;5281764;28;20215;-50
2022/03/26 03:23:06;;;;;;;42.93;21.57;;;7.50;99.90;;;;;;5284488;28;20292;-49
2022/03/26 03:25:36;;;;;;;46.43;22.50;;;7.50;99.90;;;;;;5301235;27;21067;-49
2022/03/26 03:28:07;;;;;;;44.93;21.20;;;7.40;99.90;;;;;;5304024;27;20203;-49
2022/03/26 03:30:37;;;;;;;50.50;22.47;;;7.40;99.90;;;;;;5303102;27;20257;-50
2022/03/26 03:33:08;;;;;;;44.57;22.80;;;7.40;99.90;;;;;;5296478;28;20180;-49
2022/03/26 03:35:39;;;;;;;43.03;22.53;;;7.50;99.90;;;;;;5299769;27;20232;-50
2022/03/26 03:38:09;;;;;;;41.10;22.03;;;7.50;99.90;;;;;;5281457;28;20204;-49
2022/03/26 03:40:40;;;;;;;43.33;22.17;;;7.40;99.90;;;;;;5284754;28;20570;-50
2022/03/26 03:43:11;;;;;;;42.53;22.07;;;7.40;99.90;;;;;;5272697;27;20632;-48
2022/03/26 03:45:42;;;;;;;43.83;22.57;;;7.40;99.90;;;;;;5287782;27;20288;-50
2022/03/26 03:48:12;;;;;;;48.73;21.23;;;7.40;99.90;;;;;;5277917;27;20896;-49
2022/03/26 03:50:45;;;;;;;45.47;23.93;;;7.30;99.90;;;;;;5308308;27;20225;-48
2022/03/26 03:53:17;;;;;;;40.03;23.10;;;7.30;99.90;;;;;;5279073;27;20185;-49
2022/03/26 03:55:47;;;;;;;44.73;21.80;;;7.20;99.90;;;;;;5290002;27;20449;-49
2022/03/26 03:58:17;;;;;;;42.90;22.90;;;7.20;99.90;;;;;;5293369;27;20480;-50
2022/03/26 04:00:48;;;;;;;47.40;23.13;;;7.20;99.90;;;;;;5298269;27;20232;-48
2022/03/26 04:03:18;;;;;;;41.17;22.00;;;7.20;99.90;;;;;;5284980;27;20219;-49
2022/03/26 04:05:49;;;;;;;39.57;22.30;;;7.10;99.90;;;;;;5304489;27;23488;-50
2022/03/26 04:08:21;;;;;;;49.23;23.37;;;7.10;99.90;;;;;;5302232;27;20184;-49
2022/03/26 04:10:51;;;;;;;50.23;24.63;;;7.00;99.90;;;;;;5298482;27;20312;-51
2022/03/26 04:13:22;;;;;;;41.57;22.87;;;7.00;99.90;;;;;;5285487;27;20933;-49
2022/03/26 04:15:52;;;;;;;44.37;23.30;;;7.00;99.90;;;;;;5288580;27;21145;-49
2022/03/26 04:18:23;;;;;;;43.57;24.20;;;6.90;99.90;;;;;;5293202;27;20218;-50
2022/03/26 04:20:56;;;;;;;47.97;24.40;;;6.90;99.90;;;;;;5281708;27;20293;-50
2022/03/26 04:23:27;;;;;;;47.97;23.87;;;6.90;99.90;;;;;;5303142;27;20948;-47
2022/03/26 04:25:57;;;;;;;45.30;24.87;;;6.90;99.90;;;;;;5307693;27;20459;-49
2022/03/26 04:28:28;;;;;;;45.00;24.40;;;6.90;99.90;;;;;;5308279;27;20183;-47
2022/03/26 04:30:59;;;;;;;50.03;22.77;;;6.80;99.90;;;;;;5294650;27;20261;-50
2022/03/26 04:33:29;;;;;;;45.13;23.57;;;6.80;99.90;;;;;;5295371;27;20432;-49
2022/03/26 04:36:00;;;;;;;42.63;23.80;;;6.70;99.90;;;;;;5303863;27;20540;-49
2022/03/26 04:38:30;;;;;;;53.27;24.47;;;6.70;99.90;;;;;;5300818;27;20237;-49
2022/03/26 04:41:01;;;;;;;48.47;25.57;;;6.70;99.90;;;;;;5296967;27;20218;-49
2022/03/26 04:43:32;;;;;;;50.43;25.50;;;6.70;99.90;;;;;;5306013;27;20195;-51
2022/03/26 04:46:02;;;;;;;66.63;26.83;;;6.70;99.90;;;;;;5294674;27;20432;-50
2022/03/26 04:48:33;;;;;;;58.30;27.10;;;6.60;99.90;;;;;;5302001;27;20190;-49
2022/03/26 04:51:04;;;;;;;55.87;25.40;;;6.70;99.90;;;;;;5285412;27;20183;-49
2022/03/26 04:53:34;;;;;;;51.57;25.00;;;6.70;99.90;;;;;;5307682;27;20237;-49
2022/03/26 04:56:05;;;;;;;64.27;27.63;;;6.70;99.90;;;;;;5292141;27;20187;-49
2022/03/26 04:58:35;;;;;;;49.13;26.50;;;6.70;99.90;;;;;;5290951;27;20196;-52
2022/03/26 05:01:07;;;;;;;44.90;25.37;;;6.70;99.90;;;;;;5308023;27;20216;-51
2022/03/26 05:03:37;;;;;;;49.57;27.60;;;6.70;99.90;;;;;;5298675;27;20237;-49
2022/03/26 05:06:08;;;;;;;60.93;27.97;;;6.60;99.90;;;;;;5288780;27;20948;-49
2022/03/26 05:08:38;;;;;;;45.17;25.80;;;6.70;99.90;;;;;;5302393;27;20177;-49
2022/03/26 05:11:09;;;;;;;66.67;28.30;;;6.70;99.90;;;;;;5309044;27;20274;-52
2022/03/26 05:13:39;;;;;;;60.40;29.47;;;6.70;99.90;;;;;;5286829;27;20190;-49
2022/03/26 05:16:10;;;;;;;62.57;29.40;;;6.70;99.90;;;;;;5295428;27;20709;-50
2022/03/26 05:18:40;;;;;;;71.30;30.63;;;6.80;99.90;;;;;;5299445;27;20188;-49
2022/03/26 05:21:11;;;;;;;57.90;29.07;;;6.80;99.90;;;;;;5284384;27;20256;-50
2022/03/26 05:23:41;;;;;;;69.87;30.03;;;6.80;99.90;;;;;;5307972;27;20201;-50
2022/03/26 05:26:12;;;;;;;63.23;30.13;;;6.90;99.90;;;;;;5305729;27;20204;-50
2022/03/26 05:28:42;;;;;;;60.47;28.37;;;6.90;99.90;;;;;;5290938;27;20279;-49
2022/03/26 05:31:13;;;;;;;54.80;29.00;;;7.00;99.90;;;;;;5292453;27;20193;-49
2022/03/26 05:33:43;;;;;;;63.10;29.47;;;7.10;99.90;;;;;;5296333;27;20191;-50
2022/03/26 05:36:14;;;;;;;65.30;29.53;;;7.40;99.90;;;;;;5293282;27;20187;-50
2022/03/26 05:38:44;;;;;;;57.50;29.20;;;7.60;99.90;;;;;;5306927;27;20184;-49
2022/03/26 05:41:15;;;;;;;56.47;29.13;;;7.80;99.90;;;;;;5302217;27;20268;-50
2022/03/26 05:43:45;;;;;;;60.87;30.37;;;8.30;99.90;;;;;;5301135;27;20172;-50
2022/03/26 05:46:16;;;;;;;63.00;30.60;;;8.50;99.90;;;;;;5302046;27;20215;-49
2022/03/26 05:48:46;;;;;;;56.97;30.00;;;8.70;99.90;;;;;;5287736;27;20172;-49
2022/03/26 05:51:17;;;;;;;56.83;29.90;;;8.90;99.90;;;;;;5276248;27;20651;-49
2022/03/26 05:53:49;;;;;;;63.07;28.17;;;9.10;99.90;;;;;;5301270;27;20219;-49
2022/03/26 05:56:20;;;;;;;59.73;29.00;;;9.20;99.90;;;;;;5299597;27;20168;-49
2022/03/26 05:58:50;;;;;;;62.07;30.57;;;9.60;99.90;;;;;;5296819;27;20426;-49
2022/03/26 06:01:22;;;;;;;67.53;30.07;;;10.30;99.90;;;;;;5284583;27;20472;-49
2022/03/26 06:03:53;;;;;;;51.07;29.10;;;11.50;99.90;;;;;;5276079;27;20203;-50
2022/03/26 06:06:23;;;;;;;50.90;28.10;;;12.50;97.20;;;;;;5291076;27;20958;-49
2022/03/26 06:08:54;;;;;;;63.77;29.80;;;13.60;83.70;;;;;;5296896;27;20195;-49
2022/03/26 06:11:24;;;;;;;55.77;26.87;;;14.60;67.10;;;;;;5304165;27;20605;-51
2022/03/26 06:13:55;;;;;;;48.67;27.30;;;15.50;61.50;;;;;;5299017;27;20208;-49
2022/03/26 06:16:26;;;;;;;53.40;30.07;;;16.50;54.60;;;;;;5301916;27;20549;-50
2022/03/26 06:18:56;;;;;;;56.03;29.23;;;16.70;51.50;;;;;;5295562;27;20203;-49
2022/03/26 06:21:30;;;;;;;57.73;25.13;;;17.50;50.10;;;;;;5304230;27;20643;-48
2022/03/26 06:24:01;;;;;;;65.13;26.60;;;18.20;47.40;;;;;;5288580;27;20216;-49
2022/03/26 06:26:31;;;;;;;45.70;26.63;;;18.70;45.90;;;;;;5277646;28;20824;-49
2022/03/26 06:29:02;;;;;;;44.70;25.80;;;19.20;44.10;;;;;;5301263;27;20446;-49
2022/03/26 06:31:33;;;;;;;45.57;26.47;;;19.20;43.50;;;;;;5273897;27;20199;-49
2022/03/26 06:34:03;;;;;;;54.67;26.27;;;19.40;43.00;;;;;;5306121;27;20575;-47
2022/03/26 06:36:35;;;;;;;41.70;24.87;;;20.10;42.20;;;;;;5297815;27;20214;-49
2022/03/26 06:39:06;;;;;;;45.33;24.80;;;20.30;41.00;;;;;;5307407;27;20180;-48
2022/03/26 06:41:39;;;;;;;46.90;26.87;;;20.50;40.10;;;;;;5299984;27;20463;-48
2022/03/26 06:44:10;;;;;;;52.20;29.47;;;20.10;40.40;;;;;;5304209;27;20810;-50
2022/03/26 06:46:41;;;;;;;50.17;27.60;;;19.80;40.40;;;;;;5298278;27;21009;-49
2022/03/26 06:49:11;;;;;;;55.73;27.17;;;20.20;40.40;;;;;;5287026;27;20508;-48
2022/03/26 06:51:42;;;;;;;49.10;27.47;;;20.20;39.80;;;;;;5301857;28;20188;-49
2022/03/26 06:54:13;;;;;;;48.93;25.57;;;20.40;39.60;;;;;;5286619;28;20208;-51
2022/03/26 06:56:44;;;;;;;49.40;25.67;;;20.40;39.30;;;;;;5272184;27;20582;-49
2022/03/26 06:59:14;;;;;;;50.00;25.00;;;20.30;39.30;;;;;;5298735;27;20437;-52
2022/03/26 07:01:45;;;;;;;47.90;25.27;;;20.70;39.50;;;;;;5304568;27;20183;-50
2022/03/26 07:04:15;;;;;;;49.47;24.80;;;21.10;38.20;;;;;;5287218;27;20188;-49
2022/03/26 07:06:46;;;;;;;54.00;27.50;;;20.90;38.20;;;;;;5307914;27;20196;-49
2022/03/26 07:09:16;;;;;;;49.77;27.00;;;21.00;37.90;;;;;;5258063;28;20566;-50
2022/03/26 07:11:47;;;;;;;42.70;24.47;;;20.70;38.40;;;;;;5231888;28;20204;-50
2022/03/26 07:14:18;;;;;;;43.40;25.23;;;21.60;37.70;;;;;;5299567;27;20672;-50
2022/03/26 07:16:48;;;;;;;46.67;24.20;;;21.00;37.30;;;;;;5304804;27;20191;-48
2022/03/26 07:19:19;;;;;;;42.63;26.03;;;21.20;37.90;;;;;;5309596;27;20461;-50
2022/03/26 07:21:49;;;;;;;43.60;24.93;;;21.70;38.10;;;;;;5310489;27;20333;-49
2022/03/26 07:24:21;;;;;;;40.30;23.70;;;22.40;36.50;;;;;;5309366;27;20203;-50
2022/03/26 07:26:52;;;;;;;41.50;25.13;;;22.60;35.50;;;;;;5311141;27;20218;-49
2022/03/26 07:29:24;;;;;;;41.33;24.37;;;22.80;35.20;;;;;;5309278;27;21228;-48
2022/03/26 07:31:55;;;;;;;45.63;26.90;;;22.90;34.60;;;;;;5275875;27;20196;-49
2022/03/26 07:34:26;;;;;;;48.70;28.03;;;22.20;35.30;;;;;;5310277;27;20460;-48
2022/03/26 07:36:57;;;;;;;40.17;24.30;;;21.40;36.20;;;;;;5276923;27;20432;-50
2022/03/26 07:39:27;;;;;;;42.50;23.43;;;20.60;37.50;;;;;;5314484;27;20464;-48
2022/03/26 07:41:58;;;;;;;40.40;24.37;;;20.80;38.10;;;;;;5311967;27;20207;-49
2022/03/26 07:44:29;;;;;;;42.23;24.83;;;20.80;37.40;;;;;;5295896;27;20242;-51
2022/03/26 07:46:59;;;;;;;48.37;24.50;;;21.30;37.60;;;;;;5313279;27;20180;-49
2022/03/26 07:49:31;;;;;;;38.93;23.73;;;21.50;37.30;;;;;;5317957;27;20248;-49
2022/03/26 07:52:02;;;;;;;52.33;25.40;;;21.60;36.70;;;;;;5311775;27;20203;-48
2022/03/26 07:54:32;;;;;;;41.10;24.03;;;22.20;36.70;;;;;;5295621;27;20458;-49
2022/03/26 07:57:03;;;;;;;38.67;23.60;;;22.80;35.30;;;;;;5311046;27;20645;-50
2022/03/26 07:59:34;;;;;;;37.80;22.50;;;22.90;34.90;;;;;;5276612;27;20248;-49
2022/03/26 08:02:05;;;;;;;38.27;24.00;;;23.20;35.20;;;;;;5311915;27;20444;-50
2022/03/26 08:04:35;;;;;;;35.50;22.23;;;22.90;35.00;;;;;;5294080;27;20267;-50
2022/03/26 08:07:06;;;;;;;39.93;22.47;;;22.50;35.60;;;;;;5311167;27;20528;-48
2022/03/26 08:09:37;;;;;;;37.40;22.50;;;21.60;37.00;;;;;;5313641;27;20172;-51
2022/03/26 08:12:08;;;;;;;39.53;21.70;;;21.50;37.90;;;;;;5312235;27;20460;-49
2022/03/26 08:14:39;;;;;;;33.03;20.80;;;20.70;38.60;;;;;;5308860;27;20204;-50
2022/03/26 08:17:09;;;;;;;31.53;19.50;;;19.60;40.30;;;;;;5310169;27;20430;-49
2022/03/26 08:19:40;;;;;;;46.37;22.27;;;18.60;42.20;;;;;;5299275;27;20601;-50
2022/03/26 08:22:10;;;;;;;40.63;21.47;;;17.50;44.30;;;;;;5301586;27;20180;-49
2022/03/26 08:24:41;;;;;;;30.90;18.67;;;17.00;45.90;;;;;;5280933;22;20248;-49
2022/03/26 08:27:12;;;;;;;34.73;20.20;;;17.00;46.50;;;;;;5233838;28;20616;-47
2022/03/26 08:29:42;;;;;;;32.80;19.30;;;16.60;46.70;;;;;;5241904;28;20182;-47
2022/03/26 08:32:13;;;;;;;37.00;20.03;;;16.50;47.30;;;;;;5237252;28;20212;-49
2022/03/26 08:34:44;;;;;;;33.80;19.67;;;16.10;47.60;;;;;;5244013;28;21119;-48
2022/03/26 08:37:15;;;;;;;37.33;19.13;;;15.70;48.70;;;;;;5238639;28;20232;-51
2022/03/26 08:39:45;;;;;;;32.73;18.77;;;15.50;49.50;;;;;;5242283;28;20460;-48
2022/03/26 08:42:16;;;;;;;25.63;17.67;;;15.80;49.80;;;;;;5244867;28;20235;-48
2022/03/26 08:44:46;;;;;;;30.40;18.37;;;16.20;49.20;;;;;;5234595;28;20193;-49
2022/03/26 08:47:17;;;;;;;40.50;19.70;;;16.20;49.40;;;;;;5244395;28;20220;-50
2022/03/26 08:49:47;;;;;;;41.27;20.30;;;16.30;49.30;;;;;;5241419;28;20204;-49
2022/03/26 08:52:21;;;;;;;30.70;18.27;;;16.40;48.90;;;;;;5238074;28;20190;-49
2022/03/26 08:54:52;;;;;;;28.30;16.87;;;16.20;49.50;;;;;;5237028;28;20297;-49
2022/03/26 08:57:22;;;;;;;30.63;18.93;;;16.30;49.70;;;;;;5239289;28;20443;-48
2022/03/26 08:59:53;;;;;;;29.10;17.73;;;16.00;49.70;;;;;;5244615;28;20194;-49
2022/03/26 09:02:23;;;;;;;29.10;19.13;;;15.80;50.90;;;;;;5238088;28;20261;-49
2022/03/26 09:04:54;;;;;;;30.30;17.90;;;15.80;51.30;;;;;;5241745;28;20675;-49
2022/03/26 09:07:25;;;;;;;28.30;17.93;;;15.80;51.70;;;;;;5243032;28;20654;-49
2022/03/26 09:09:55;;;;;;;26.53;15.80;;;15.90;51.50;;;;;;5243827;28;20236;-49
2022/03/26 09:12:26;;;;;;;22.67;12.90;;;15.70;52.20;;;;;;5241973;28;20187;-48
2022/03/26 09:14:56;;;;;;;23.10;11.50;;;15.90;52.70;;;;;;5237663;28;20782;-50
2022/03/26 09:17:27;;;;;;;26.93;11.90;;;16.20;52.70;;;;;;5254517;28;20611;-48
2022/03/26 09:19:57;;;;;;;26.07;11.70;;;16.60;52.10;;;;;;5241777;28;20339;-48
2022/03/26 09:22:28;;;;;;;18.90;12.53;;;16.70;52.00;;;;;;5242354;28;20174;-49
2022/03/26 09:24:59;;;;;;;23.20;12.27;;;16.60;52.20;;;;;;5234931;28;20225;-49
2022/03/26 09:27:31;;;;;;;28.53;14.03;;;16.30;52.70;;;;;;5245652;28;20202;-50
2022/03/26 09:30:01;;;;;;;20.23;13.80;;;16.10;53.50;;;;;;5242715;28;20440;-52
2022/03/26 09:32:32;;;;;;;28.07;11.87;;;15.80;54.40;;;;;;5236599;28;20437;-49
2022/03/26 09:35:03;;;;;;;27.00;13.67;;;15.50;55.50;;;;;;5239877;28;20205;-50
2022/03/26 09:37:34;;;;;;;25.20;14.90;;;15.20;57.10;;;;;;5243326;28;20682;-50
2022/03/26 09:40:06;;;;;;;26.40;15.17;;;14.70;59.10;;;;;;5220964;28;20578;-50
2022/03/26 09:42:38;;;;;;;28.50;16.53;;;14.60;63.60;;;;;;5241420;28;20487;-50
2022/03/26 09:45:09;;;;;;;19.83;13.83;;;14.60;67.70;;;;;;5243652;28;20444;-50
2022/03/26 09:47:40;;;;;;;34.30;17.30;;;14.80;67.80;;;;;;5243751;28;21012;-52
2022/03/26 09:50:11;;;;;;;34.17;16.90;;;14.90;67.00;;;;;;5243279;28;20214;-52
2022/03/26 09:52:42;;;;;;;30.00;16.87;;;14.80;68.50;;;;;;5239108;28;20186;-50
2022/03/26 09:55:14;;;;;;;28.63;17.63;;;14.60;70.40;;;;;;5239933;28;20455;-49
2022/03/26 09:57:46;;;;;;;30.00;16.67;;;14.60;71.40;;;;;;5240170;28;20638;-49
2022/03/26 10:00:17;;;;;;;20.87;15.47;;;14.80;72.00;;;;;;5240499;28;20516;-49
2022/03/26 10:02:47;;;;;;;28.53;16.67;;;14.90;72.20;;;;;;5235667;28;20437;-49
2022/03/26 10:05:19;;;;;;;26.53;16.67;;;15.10;70.40;;;;;;5234783;28;20198;-48
2022/03/26 10:07:50;;;;;;;31.10;17.60;;;15.20;69.20;;;;;;5240032;28;20304;-47
2022/03/26 10:10:24;;;;;;;33.20;16.70;;;15.20;69.40;;;;;;5244190;28;20516;-48
2022/03/26 10:12:55;;;;;;;33.03;17.33;;;15.50;69.10;;;;;;5242329;28;20428;-48
2022/03/26 10:15:25;;;;;;;30.60;16.97;;;15.80;66.60;;;;;;5239781;28;20471;-48
2022/03/26 10:18:08;;;;;;;34.60;17.83;;;16.10;64.80;;;;;;5238266;28;20229;-48
2022/03/26 10:20:39;;;;;;;33.27;17.63;;;15.90;65.00;;;;;;5239077;28;20566;-48
2022/03/26 10:23:10;;;;;;;25.43;14.73;;;16.00;65.20;;;;;;5236563;28;20439;-49
2022/03/26 10:25:40;;;;;;;33.77;18.43;;;16.10;66.00;;;;;;5238462;28;20609;-49
2022/03/26 10:28:23;;;;;;;24.70;16.70;;;16.10;64.40;;;;;;5241909;28;20280;-49
2022/03/26 10:33:42;;;;;;;30.57;16.90;;;16.00;66.60;;;;;;5237151;28;20520;-46
2022/03/26 10:36:20;;;;;;;28.93;17.47;;;15.50;70.40;;;;;;5231285;28;20751;-52
2022/03/26 10:38:50;;;;;;;33.57;17.77;;;15.30;73.60;;;;;;5233272;28;20534;-49
2022/03/26 10:41:21;;;;;;;40.17;17.17;;;15.30;75.90;;;;;;5236940;28;20486;-47
2022/03/26 10:44:09;;;;;;;29.93;17.00;;;15.30;76.00;;;;;;5240074;28;20215;-47
2022/03/26 10:47:01;;;;;;;32.43;16.77;;;15.30;77.20;;;;;;5253110;28;20924;-47
2022/03/26 10:49:40;;;;;;;31.17;18.13;;;15.60;76.20;;;;;;5238148;28;20451;-47
2022/03/26 10:52:14;;;;;;;21.37;15.53;;;15.60;75.60;;;;;;5236506;28;20428;-49
2022/03/26 10:54:47;;;;;;;42.73;18.97;;;15.80;74.30;;;;;;5235893;28;20456;-48
2022/03/26 10:57:24;;;;;;;36.17;17.67;;;15.80;73.00;;;;;;5233448;28;21762;-47
2022/03/26 10:59:55;;;;;;;35.07;18.30;;;15.60;75.50;;;;;;5229956;28;20550;-47
2022/03/26 11:02:25;;;;;;;31.23;18.97;;;15.40;77.10;;;;;;5242357;28;20543;-49
2022/03/26 11:04:56;;;;;;;33.90;18.70;;;15.50;77.70;;;;;;5236788;28;20194;-46
2022/03/26 11:07:27;;;;;;;34.37;19.40;;;15.60;75.60;;;;;;5235517;28;20642;-47
2022/03/26 11:10:00;;;;;;;32.07;17.53;;;15.60;75.20;;;;;;5235287;28;20296;-47
2022/03/26 11:12:32;;;;;;;25.77;17.60;;;15.70;75.50;;;;;;5247013;28;20436;-47
2022/03/26 11:15:07;;;;;;;39.93;21.30;;;15.70;75.60;;;;;;5239489;28;20467;-48
2022/03/26 11:18:05;;;;;;;39.50;21.80;;;15.90;75.50;;;;;;5241582;28;20511;-46
2022/03/26 11:21:05;;;;;;;35.93;21.30;;;15.90;74.90;;;;;;5243738;28;20970;-46
2022/03/26 11:24:07;;;;;;;35.20;19.40;;;16.00;74.90;;;;;;5242402;28;20587;-49
2022/03/26 11:27:05;;;;;;;37.03;20.60;;;16.10;73.70;;;;;;5245040;28;20937;-47
2022/03/26 11:30:15;;;;;;;36.73;19.60;;;16.10;74.60;;;;;;5246731;28;20439;-52
2022/03/26 11:32:49;;;;;;;45.60;23.53;;;16.20;73.50;;;;;;5234218;28;20597;-50
2022/03/26 11:35:19;;;;;;;34.60;21.67;;;16.20;72.60;;;;;;5238871;28;21010;-48
2022/03/26 11:37:54;;;;;;;41.07;20.07;;;16.30;72.20;;;;;;5244729;28;20436;-50
2022/03/26 11:40:48;;;;;;;33.73;20.10;;;16.40;72.10;;;;;;5233364;28;20202;-49
2022/03/26 11:43:42;;;;;;;34.47;20.87;;;16.40;72.00;;;;;;5245553;28;20464;-50
2022/03/26 11:52:29;;;;;;;35.30;18.67;;;16.00;75.40;;;;;;5243735;28;20423;-50
2022/03/26 11:55:18;;;;;;;37.33;21.30;;;15.80;76.30;;;;;;5247194;28;20467;-50
2022/03/26 11:58:12;;;;;;;34.70;19.87;;;15.50;80.40;;;;;;5245065;28;20435;-49
2022/03/26 12:01:00;;;;;;;41.07;21.70;;;15.30;83.40;;;;;;5236041;28;20541;-49
2022/03/26 12:03:41;;;;;;;38.07;22.00;;;15.30;85.00;;;;;;5257352;28;21012;-49
2022/03/26 12:06:37;;;;;;;41.30;24.40;;;15.20;87.50;;;;;;5240455;28;20837;-51
2022/03/26 12:09:10;;;;;;;41.77;24.40;;;15.00;89.00;;;;;;5240539;28;20633;-49
2022/03/26 12:12:13;;;;;;;40.63;23.40;;;15.20;89.80;;;;;;5241145;28;20441;-48
2022/03/26 12:15:02;;;;;;;46.13;23.70;;;15.30;89.10;;;;;;5243078;28;20464;-48
2022/03/26 12:17:45;;;;;;;40.30;23.10;;;15.30;88.50;;;;;;5245280;28;20444;-50
2022/03/26 12:20:32;;;;;;;62.47;29.50;;;15.40;88.80;;;;;;5240923;28;20922;-51
2022/03/26 12:23:03;;;;;;;60.63;27.00;;;15.30;88.80;;;;;;5246641;28;20448;-49
2022/03/26 12:25:49;;;;;;;44.90;25.10;;;15.20;90.30;;;;;;5243274;28;20464;-48
2022/03/26 12:28:37;;;;;;;42.37;24.93;;;15.00;91.60;;;;;;5237149;28;20453;-49
2022/03/26 12:31:13;;;;;;;45.40;24.47;;;15.00;92.00;;;;;;5243044;28;20465;-50
2022/03/26 12:33:46;;;;;;;52.37;25.90;;;15.10;91.70;;;;;;5241715;28;20539;-50
2022/03/26 12:36:18;;;;;;;42.43;23.40;;;15.00;92.70;;;;;;5242581;28;20464;-49
2022/03/26 12:38:54;;;;;;;40.33;22.77;;;14.70;94.50;;;;;;5245131;28;20912;-48
2022/03/26 12:41:24;;;;;;;46.90;26.00;;;14.80;95.20;;;;;;5244515;28;20967;-49
2022/03/26 12:43:57;;;;;;;51.13;26.93;;;14.90;95.20;;;;;;5242701;28;20447;-48
2022/03/26 12:46:32;;;;;;;43.97;24.33;;;15.10;94.50;;;;;;5245186;28;20225;-47
2022/03/26 12:49:21;;;;;;;62.33;26.37;;;15.00;95.10;;;;;;5234364;28;20943;-49
2022/03/26 12:51:53;;;;;;;42.40;22.67;;;14.60;97.30;;;;;;5222571;28;20440;-48
2022/03/26 12:54:28;;;;;;;45.97;24.17;;;14.30;99.80;;;;;;5247607;28;20449;-48
2022/03/26 12:57:02;;;;;;;43.07;22.73;;;14.10;99.90;;;;;;5250466;28;20880;-50
2022/03/26 12:59:33;;;;;;;41.07;23.50;;;14.10;99.90;;;;;;5245507;28;20475;-49
2022/03/26 13:02:09;;;;;;;39.10;21.83;;;14.20;99.90;;;;;;5239014;28;20433;-49
2022/03/26 13:04:39;;;;;;;39.57;21.10;;;14.00;99.90;;;;;;5239583;28;20541;-48
2022/03/26 13:07:10;;;;;;;37.23;22.00;;;14.00;99.90;;;;;;5244963;28;20968;-51